EGBJ/GLO METAR and TAF weather

Enter ICAO airport designator
Station Type Date Time Source
EGBJ METAR 2019/10/21 17:50 UTC NOAA

EGBJ 211750Z 35002KT 9999 FEW026 11/09 Q1022


Station Type Date Time Source
EGBJ Decoded METAR 2019/10/21 17:50 UTC NOAA

Staverton Private , United Kingdom (EGBJ) 51-54N 002-10W
Oct 21, 2019 - 01:50 PM EDT / 2019.10.21 1750 UTC
Wind: from the N (350 degrees) at 2 MPH (2 KT):0
Visibility: greater than 7 mile(s):0
Sky conditions: mostly clear
Temperature: 51 F (11 C)
Dew Point: 48 F (9 C)
Relative Humidity: 87%
Pressure (altimeter): 30.18 in. Hg (1022 hPa)
ob: EGBJ 211750Z 35002KT 9999 FEW026 11/09 Q1022
cycle: 18

Station Type Date Time Source
EGBJ TAF UTC NOAA

Error!

Example: see airport list